Idre Storbo, Sweden

2:19 AM CET on February 06, 2016 (GMT +0100)
Tjonnodden, 2446 Elga, Engedal, Norway | | Change Station
CLOSE
Current Station
Personal Weather Station
Location: Hedmark, HEDMARK
Elevation: 2218 ft
Nearby Weather Stations

Elev 2218 ft 62.16 °N, 11.90 °E | Updated 30 seconds ago

Light Snow Grains
Light Snow Grains
26.8 °F
Feels Like 27 °F
N
2.5
Wind Variable Wind from SSE
Gusts 4.9 mph

Today
High -- | Low -- °F
--% Chance of Precip.
Yesterday
High -- | Low -- °F
Precip. -- in
Pressure 29.44 in
Visibility 6.2 miles
Clouds Few 1500 ft
Mostly Cloudy 7600 ft
Overcast 9000 ft
Windchill 27 °F
Dew Point 19 °F
Humidity 71%
Rainfall 0.00 in
Snow Depth Not available.
8:23 AM 4:26 PM
Waning Crescent, 8% visible
METAR ENRO 060050Z AUTO VRB03KT 9999NDV -SG FEW015/// BKN076/// OVC090/// M04/M05 Q0997
Pressure 29.44 in
Visibility 6.2 miles
Clouds Few 1500 ft
Mostly Cloudy 7600 ft
Overcast 9000 ft
Windchill 27 °F
Dew Point 19 °F
Humidity 71%
Rainfall 0.00 in
Snow Depth Not available.
8:23 AM 4:26 PM
Waning Crescent, 8% visible
METAR ENRO 060050Z AUTO VRB03KT 9999NDV -SG FEW015/// BKN076/// OVC090/// M04/M05 Q0997

10-Day Weather Forecast

Almanac

Astronomy

Feb. 06, 2016 Rise Set
Actual Time
Civil Twilight
Nautical Twilight
Astronomical Twilight
Moon
Length of Visible Light
Length of Day
Tomorrow will be .
, % of the Moon is Illuminated

Today's Extremes

Country Highs Country Lows

Community

WunderPhotos

Upload Photos

1,890,904 photos uploaded!

WunderBlog® & News

Nearby

Air Quality

  Air Quality AQ Index Pollutant
Not available.

Snow Depth

Station Depth Elevation

Earthquake Activity

City Distance Mag. Time & Date
Minimum magnitude displayed is 2.5.

Coastal Water Temperatures

Place Temperature

Stations

Nearby Weather Stations

Station Location Temp. Windchill Dew Point Humidity Wind Precip. Elev Updated Type